aviador You're here:

KMAI Decoded Metar

MARIANNA in FL, USA
Report Time2017-07-26 06:24:00
UTC Time2017-07-26 06:38:23
Flight Rules lifr LIFR
WindCalm
Visibility9999 m
Phenomena:N/A
Clouds:Broken 003 Hf
Ceiling300 ft
Temp24°C (ISA +9)
Dew Point24°C (100% RH)
QNH1018 hPa
Density Alt1,398 ft
Elevation105 ft
Report Wrong Elevation
Raw Report
KMAI 260624Z AUTO 00000KT 9SM BKN003 24/24 A3007 RMK AO2
T02390239=

Extra information for KMAI:More info

Metar Taf Metar & Taf Last 4 Metars F.Rules Stats Wind Profile Meteogram Temp Stats Airport Information Weather charts Add Link Nearby VenuesMetar ALERT Operation Metar Decoded Social comments

AIRNAV info for KMAI